Time;durP1;ratioP1;P1;durP2;ratioP2;P2;SDS_P1;SDS_P2;PMS_P1;PMS_P2;Temp;Humidity;BMP_temperature;BMP_pressure;BME280_temperature;BME280_humidity;BME280_pressure;Samples;Min_cycle;Max_cycle;Signal;HPM_P1;HPM_P2
2021/11/12 00:14:09;;;;;;;;;77.33;59.67;;;;;;;;5032676;28;45849;-77
2021/11/12 00:16:35;;;;;;;;;78.00;61.00;;;;;;;;5039324;28;45508;-78
2021/11/12 00:19:01;;;;;;;;;77.00;62.67;;;;;;;;5035424;28;45492;-78
2021/11/12 00:21:26;;;;;;;;;80.00;62.33;;;;;;;;5037566;28;45381;-78
2021/11/12 00:23:51;;;;;;;;;80.33;64.67;;;;;;;;5034538;28;46331;-77
2021/11/12 00:26:17;;;;;;;;;87.67;72.00;;;;;;;;5014942;28;45604;-77
2021/11/12 00:28:56;;;;;;;;;76.67;58.33;;;;;;;;5035831;28;45521;-78
2021/11/12 00:36:45;;;;;;;;;80.67;60.67;;;;;;;;5042152;28;45350;-79
2021/11/12 00:39:18;;;;;;;;;68.33;52.33;;;;;;;;5035372;28;45362;-78
2021/11/12 00:42:10;;;;;;;;;76.00;59.33;;;;;;;;5040515;28;45295;-79
2021/11/12 00:44:40;;;;;;;;;76.67;60.00;;;;;;;;5033924;28;45717;-78
2021/11/12 00:47:55;;;;;;;;;78.00;58.00;;;;;;;;5031906;28;45458;-79
2021/11/12 00:50:11;;;;;;;;;71.33;57.33;;;;;;;;5024771;28;45253;-78
2021/11/12 00:52:43;;;;;;;;;70.33;56.00;;;;;;;;5037303;28;45496;-78
2021/11/12 00:55:08;;;;;;;;;69.67;54.00;;;;;;;;5040381;28;47256;-78
2021/11/12 00:57:33;;;;;;;;;68.67;52.67;;;;;;;;5035043;28;45387;-77
2021/11/12 00:59:58;;;;;;;;;73.00;56.00;;;;;;;;5036420;28;45470;-78
2021/11/12 01:02:24;;;;;;;;;70.33;55.33;;;;;;;;5041429;28;45395;-79
2021/11/12 01:04:50;;;;;;;;;76.67;59.00;;;;;;;;5035271;28;46200;-78
2021/11/12 01:07:15;;;;;;;;;68.33;54.00;;;;;;;;5034559;28;45351;-78
2021/11/12 01:09:40;;;;;;;;;73.67;57.00;;;;;;;;5034697;28;45562;-78
2021/11/12 01:12:06;;;;;;;;;77.00;56.33;;;;;;;;5036096;28;45328;-78
2021/11/12 01:14:31;;;;;;;;;70.00;54.00;;;;;;;;5034725;28;45678;-78
2021/11/12 01:16:56;;;;;;;;;69.00;53.00;;;;;;;;5035405;28;45272;-78
2021/11/12 01:19:22;;;;;;;;;67.33;53.00;;;;;;;;5034784;28;45436;-78
2021/11/12 01:21:47;;;;;;;;;70.50;52.75;;;;;;;;5036387;28;45533;-77
2021/11/12 01:24:12;;;;;;;;;68.25;52.25;;;;;;;;5046854;28;45982;-76
2021/11/12 01:26:38;;;;;;;;;69.33;54.00;;;;;;;;5034612;28;45500;-78
2021/11/12 01:29:04;;;;;;;;;65.00;51.33;;;;;;;;5026859;28;46003;-78
2021/11/12 01:31:30;;;;;;;;;71.67;55.00;;;;;;;;5034557;28;45291;-78
2021/11/12 01:34:06;;;;;;;;;72.00;57.33;;;;;;;;5042399;28;46518;-78
2021/11/12 01:36:36;;;;;;;;;70.33;52.00;;;;;;;;5036535;28;45459;-78
2021/11/12 01:39:05;;;;;;;;;75.00;56.67;;;;;;;;5034514;28;45511;-77
2021/11/12 01:41:32;;;;;;;;;71.00;52.33;;;;;;;;5036595;28;45612;-78
2021/11/12 01:43:59;;;;;;;;;75.67;56.00;;;;;;;;5036885;28;45533;-78
2021/11/12 01:46:29;;;;;;;;;70.33;53.00;;;;;;;;5034118;28;45426;-78
2021/11/12 01:51:25;;;;;;;;;71.00;55.00;;;;;;;;5034199;28;45445;-78
2021/11/12 01:54:42;;;;;;;;;64.33;51.67;;;;;;;;5041504;28;47435;-78
2021/11/12 01:59:11;;;;;;;;;69.33;53.00;;;;;;;;5034629;28;46057;-77
2021/11/12 02:01:56;;;;;;;;;71.00;55.67;;;;;;;;5042489;28;45506;-78
2021/11/12 02:04:26;;;;;;;;;67.00;51.75;;;;;;;;5042882;28;46174;-78
2021/11/12 02:06:52;;;;;;;;;64.50;53.00;;;;;;;;5038601;28;45477;-78
2021/11/12 02:09:21;;;;;;;;;65.50;50.50;;;;;;;;5034044;28;45491;-78
2021/11/12 02:11:59;;;;;;;;;67.75;52.75;;;;;;;;5036796;28;45376;-77
2021/11/12 02:14:26;;;;;;;;;69.00;53.33;;;;;;;;5044070;28;47224;-78
2021/11/12 02:16:54;;;;;;;;;71.50;52.50;;;;;;;;5036911;28;45375;-77
2021/11/12 02:19:19;;;;;;;;;68.33;54.67;;;;;;;;5036950;28;45725;-77
2021/11/12 02:21:50;;;;;;;;;70.33;54.00;;;;;;;;5020140;28;45575;-77
2021/11/12 02:24:16;;;;;;;;;67.67;53.00;;;;;;;;5037411;28;45730;-77
2021/11/12 02:26:45;;;;;;;;;72.33;55.67;;;;;;;;5038256;28;45494;-77
2021/11/12 02:29:12;;;;;;;;;71.33;55.33;;;;;;;;5037276;28;45352;-79
2021/11/12 02:31:38;;;;;;;;;75.67;55.67;;;;;;;;5037200;28;45521;-78
2021/11/12 02:34:05;;;;;;;;;71.00;54.00;;;;;;;;5042001;28;45502;-75
2021/11/12 02:36:31;;;;;;;;;71.67;55.00;;;;;;;;5044481;28;45467;-78
2021/11/12 02:38:56;;;;;;;;;75.33;56.33;;;;;;;;5041414;28;45662;-78
2021/11/12 02:41:23;;;;;;;;;65.00;53.33;;;;;;;;5037032;28;45363;-78
2021/11/12 02:43:49;;;;;;;;;67.33;52.33;;;;;;;;5042505;28;47389;-77
2021/11/12 02:46:16;;;;;;;;;65.33;52.33;;;;;;;;5038826;28;45442;-78
2021/11/12 02:48:42;;;;;;;;;67.67;54.00;;;;;;;;5036881;28;45664;-77
2021/11/12 02:51:10;;;;;;;;;71.67;55.67;;;;;;;;5037444;28;45546;-78
2021/11/12 02:53:35;;;;;;;;;66.67;51.33;;;;;;;;5036633;28;47496;-78
2021/11/12 02:56:04;;;;;;;;;65.25;51.00;;;;;;;;5045513;28;45513;-77
2021/11/12 02:58:31;;;;;;;;;64.33;50.67;;;;;;;;5036671;28;47075;-78
2021/11/12 03:00:56;;;;;;;;;63.33;50.33;;;;;;;;5036455;28;45497;-78
2021/11/12 03:03:22;;;;;;;;;65.25;52.25;;;;;;;;5036175;28;46816;-78
2021/11/12 03:05:47;;;;;;;;;66.00;50.25;;;;;;;;5046127;28;45346;-78
2021/11/12 03:08:13;;;;;;;;;60.00;49.00;;;;;;;;5036902;28;45541;-78
2021/11/12 03:10:38;;;;;;;;;61.75;48.25;;;;;;;;5038299;28;46626;-78
2021/11/12 03:13:03;;;;;;;;;65.33;47.67;;;;;;;;5036082;28;47099;-78
2021/11/12 03:15:29;;;;;;;;;57.00;46.50;;;;;;;;5041429;28;45269;-78
2021/11/12 03:17:55;;;;;;;;;62.75;47.25;;;;;;;;5036000;28;45371;-78
2021/11/12 03:20:22;;;;;;;;;56.25;46.00;;;;;;;;5036078;28;45457;-77
2021/11/12 03:23:33;;;;;;;;;61.25;49.00;;;;;;;;5038593;28;45347;-78
2021/11/12 03:25:42;;;;;;;;;65.25;49.25;;;;;;;;5028019;28;45692;-77
2021/11/12 03:31:26;;;;;;;;;57.75;45.00;;;;;;;;5035647;28;45285;-78
2021/11/12 03:56:27;;;;;;;;;62.33;49.67;;;;;;;;5032554;28;45426;-77
2021/11/12 04:20:01;;;;;;;;;60.00;49.00;;;;;;;;4950649;28;45439;-76
2021/11/12 04:41:52;;;;;;;;;55.50;43.75;;;;;;;;4949973;28;45367;-78
2021/11/12 05:44:02;;;;;;;;;54.25;43.50;;;;;;;;5033245;28;45385;-76
2021/11/12 05:57:04;;;;;;;;;53.75;41.50;;;;;;;;5042525;28;45336;-78
2021/11/12 05:59:29;;;;;;;;;55.50;42.75;;;;;;;;5042128;28;45518;-79
2021/11/12 06:01:55;;;;;;;;;50.25;37.25;;;;;;;;5020173;28;45513;-79
2021/11/12 06:04:21;;;;;;;;;58.75;43.25;;;;;;;;5040199;28;45904;-79
2021/11/12 06:06:46;;;;;;;;;54.00;44.25;;;;;;;;5042104;28;45423;-78
2021/11/12 06:09:11;;;;;;;;;50.25;41.00;;;;;;;;5045699;28;45331;-79
2021/11/12 06:11:37;;;;;;;;;54.00;42.25;;;;;;;;5036648;28;45472;-79
2021/11/12 06:14:03;;;;;;;;;52.25;42.50;;;;;;;;5037238;28;45312;-79
2021/11/12 06:16:28;;;;;;;;;58.50;44.00;;;;;;;;5038540;28;45452;-78
2021/11/12 06:18:54;;;;;;;;;54.00;45.00;;;;;;;;5041958;28;45865;-78
2021/11/12 06:21:20;;;;;;;;;40.50;36.00;;;;;;;;5036966;28;45460;-77
2021/11/12 06:23:46;;;;;;;;;53.50;41.75;;;;;;;;5049999;28;46388;-79
2021/11/12 06:26:11;;;;;;;;;52.50;41.00;;;;;;;;5043856;28;45371;-78
2021/11/12 06:28:37;;;;;;;;;44.00;36.25;;;;;;;;5035451;28;45506;-78
2021/11/12 06:31:03;;;;;;;;;54.00;44.00;;;;;;;;5036364;28;45548;-78
2021/11/12 06:33:29;;;;;;;;;61.50;45.75;;;;;;;;5036718;28;46126;-79
2021/11/12 06:35:54;;;;;;;;;52.00;40.75;;;;;;;;5028347;28;45420;-79
2021/11/12 06:38:24;;;;;;;;;54.00;43.00;;;;;;;;5030987;28;45406;-79
2021/11/12 06:40:50;;;;;;;;;39.75;36.00;;;;;;;;5036026;28;45479;-78
2021/11/12 06:43:28;;;;;;;;;44.25;38.25;;;;;;;;5047530;28;47000;-77
2021/11/12 06:51:24;;;;;;;;;47.75;38.25;;;;;;;;5031833;28;45414;-77
2021/11/12 06:53:50;;;;;;;;;47.50;40.75;;;;;;;;5035549;28;45360;-77
2021/11/12 06:56:19;;;;;;;;;36.50;31.50;;;;;;;;5017913;28;45525;-76
2021/11/12 06:58:44;;;;;;;;;41.75;36.00;;;;;;;;5036661;28;45337;-77
2021/11/12 07:01:09;;;;;;;;;41.25;34.00;;;;;;;;5040679;28;45515;-76
2021/11/12 07:03:35;;;;;;;;;39.50;32.00;;;;;;;;5035532;28;45324;-76
2021/11/12 07:06:01;;;;;;;;;42.00;35.25;;;;;;;;5023135;28;45382;-77
2021/11/12 07:08:26;;;;;;;;;49.50;38.75;;;;;;;;5028211;28;45422;-76
2021/11/12 07:10:52;;;;;;;;;38.25;35.50;;;;;;;;5036125;28;45434;-76
2021/11/12 07:13:23;;;;;;;;;38.50;32.75;;;;;;;;5035268;28;45913;-78
2021/11/12 07:15:48;;;;;;;;;43.25;36.00;;;;;;;;5035159;28;45365;-78
2021/11/12 07:18:13;;;;;;;;;45.00;37.75;;;;;;;;5038145;28;45225;-76
2021/11/12 07:20:39;;;;;;;;;47.00;33.75;;;;;;;;5029895;28;45420;-76
2021/11/12 07:23:04;;;;;;;;;42.25;37.25;;;;;;;;5038100;28;45388;-78
2021/11/12 07:25:30;;;;;;;;;47.25;36.00;;;;;;;;5040058;28;45426;-77
2021/11/12 07:27:55;;;;;;;;;42.50;33.00;;;;;;;;5018266;28;45494;-77
2021/11/12 07:30:20;;;;;;;;;41.00;33.75;;;;;;;;5035316;28;45755;-77
2021/11/12 07:32:47;;;;;;;;;35.25;32.00;;;;;;;;5034662;28;46295;-78
2021/11/12 07:35:15;;;;;;;;;36.75;35.25;;;;;;;;5034899;28;45550;-78
2021/11/12 07:37:40;;;;;;;;;36.25;34.75;;;;;;;;5034218;28;45301;-79
2021/11/12 07:40:08;;;;;;;;;32.25;28.25;;;;;;;;5032117;28;45339;-78
2021/11/12 07:43:22;;;;;;;;;40.25;34.50;;;;;;;;5026704;28;45485;-78
2021/11/12 07:48:17;;;;;;;;;33.25;29.25;;;;;;;;4953340;28;45388;-79
2021/11/12 07:50:43;;;;;;;;;19.00;17.00;;;;;;;;4953489;28;45498;-79
2021/11/12 07:53:08;;;;;;;;;41.25;36.00;;;;;;;;4953064;28;47017;-78
2021/11/12 07:55:34;;;;;;;;;46.25;37.75;;;;;;;;4953628;28;45451;-76
2021/11/12 07:57:59;;;;;;;;;43.50;36.50;;;;;;;;4954887;28;45480;-78
2021/11/12 08:00:25;;;;;;;;;46.50;37.75;;;;;;;;4952663;28;45496;-76
2021/11/12 08:02:50;;;;;;;;;41.25;33.75;;;;;;;;4952874;28;46459;-77
2021/11/12 08:05:22;;;;;;;;;31.25;29.00;;;;;;;;4953556;28;45376;-75
2021/11/12 08:07:49;;;;;;;;;45.75;37.75;;;;;;;;4955072;28;45462;-79
2021/11/12 08:10:18;;;;;;;;;43.00;35.00;;;;;;;;4961345;28;45441;-79
2021/11/12 08:12:54;;;;;;;;;40.00;33.00;;;;;;;;4959354;28;46183;-78
2021/11/12 08:18:06;;;;;;;;;35.75;35.00;;;;;;;;4966725;28;45470;-88
2021/11/12 08:38:07;;;;;;;;;43.00;36.00;;;;;;;;5034663;28;45422;-78
2021/11/12 08:43:20;;;;;;;;;47.25;37.50;;;;;;;;5036186;28;45702;-79
2021/11/12 08:46:02;;;;;;;;;53.75;39.25;;;;;;;;5035222;28;45559;-78
2021/11/12 08:49:15;;;;;;;;;38.75;34.00;;;;;;;;5042615;28;45450;-78
2021/11/12 08:51:15;;;;;;;;;47.75;38.25;;;;;;;;5022827;28;45603;-78
2021/11/12 08:53:41;;;;;;;;;41.00;36.75;;;;;;;;5033165;28;47111;-78
2021/11/12 08:56:12;;;;;;;;;38.50;33.75;;;;;;;;5039996;28;45335;-77
2021/11/12 08:58:38;;;;;;;;;43.25;36.50;;;;;;;;5035258;28;45313;-77
2021/11/12 09:01:03;;;;;;;;;39.00;35.50;;;;;;;;5036523;28;45476;-76
2021/11/12 09:03:28;;;;;;;;;45.25;38.75;;;;;;;;5032846;28;45414;-75
2021/11/12 09:05:53;;;;;;;;;47.00;36.00;;;;;;;;5034851;28;45460;-75
2021/11/12 09:08:19;;;;;;;;;48.50;38.25;;;;;;;;5046624;28;45327;-76
2021/11/12 09:10:44;;;;;;;;;46.00;39.50;;;;;;;;5033266;28;45349;-78
2021/11/12 09:13:18;;;;;;;;;53.50;42.50;;;;;;;;5037244;28;46017;-76
2021/11/12 09:15:53;;;;;;;;;48.00;38.00;;;;;;;;5035245;28;45473;-77
2021/11/12 09:18:22;;;;;;;;;39.50;35.00;;;;;;;;5042567;28;45530;-74
2021/11/12 09:20:47;;;;;;;;;48.25;37.25;;;;;;;;5033633;28;45554;-73
2021/11/12 09:23:12;;;;;;;;;47.75;38.75;;;;;;;;5033202;28;46214;-73
2021/11/12 09:25:37;;;;;;;;;48.25;38.75;;;;;;;;5033681;28;45312;-75
2021/11/12 09:28:03;;;;;;;;;42.75;34.50;;;;;;;;5033571;28;45394;-73
2021/11/12 09:30:34;;;;;;;;;46.25;35.75;;;;;;;;5033077;28;45324;-74
2021/11/12 09:32:59;;;;;;;;;47.75;37.25;;;;;;;;5032418;28;46265;-73
2021/11/12 09:35:25;;;;;;;;;48.75;37.75;;;;;;;;5033288;28;45419;-74
2021/11/12 09:37:50;;;;;;;;;43.25;37.00;;;;;;;;5033524;28;45422;-73
2021/11/12 09:40:15;;;;;;;;;52.00;38.25;;;;;;;;5032314;28;45331;-74
2021/11/12 09:42:42;;;;;;;;;43.00;36.75;;;;;;;;5032807;28;45342;-74
2021/11/12 09:45:10;;;;;;;;;44.25;36.50;;;;;;;;5033205;28;45383;-73
2021/11/12 09:47:36;;;;;;;;;41.50;36.50;;;;;;;;5016697;28;45388;-74
2021/11/12 09:50:03;;;;;;;;;34.00;31.75;;;;;;;;5033283;28;45573;-76
2021/11/12 09:52:30;;;;;;;;;47.50;38.00;;;;;;;;5032090;28;46252;-74
2021/11/12 09:54:55;;;;;;;;;42.25;34.00;;;;;;;;5032296;28;45340;-73
2021/11/12 09:57:20;;;;;;;;;39.50;35.25;;;;;;;;5032539;28;45581;-74
2021/11/12 09:59:51;;;;;;;;;53.00;43.00;;;;;;;;5032412;28;45266;-74
2021/11/12 10:02:17;;;;;;;;;45.00;38.00;;;;;;;;5032130;28;46044;-74
2021/11/12 10:04:42;;;;;;;;;42.75;34.50;;;;;;;;5032548;28;45432;-73
2021/11/12 10:07:12;;;;;;;;;48.50;37.75;;;;;;;;5032286;28;45512;-73
2021/11/12 10:09:38;;;;;;;;;48.25;38.50;;;;;;;;5032394;28;45234;-75
2021/11/12 10:12:04;;;;;;;;;49.25;36.50;;;;;;;;5031726;28;47446;-75
2021/11/12 10:14:51;;;;;;;;;41.25;36.00;;;;;;;;5032229;28;45262;-73
2021/11/12 10:17:18;;;;;;;;;48.75;40.25;;;;;;;;5030703;28;45408;-75
2021/11/12 10:19:48;;;;;;;;;44.75;36.75;;;;;;;;5032084;28;45430;-74
2021/11/12 10:22:15;;;;;;;;;46.00;37.00;;;;;;;;5031518;28;46429;-74
2021/11/12 10:24:41;;;;;;;;;46.75;38.50;;;;;;;;5031871;28;45560;-74
2021/11/12 10:27:09;;;;;;;;;44.50;36.50;;;;;;;;5032156;28;45423;-74
2021/11/12 10:29:40;;;;;;;;;48.75;38.50;;;;;;;;5016475;28;45356;-75
2021/11/12 10:32:07;;;;;;;;;47.50;39.25;;;;;;;;5028139;28;47476;-74
2021/11/12 10:34:34;;;;;;;;;48.00;38.50;;;;;;;;5013972;28;45412;-75
2021/11/12 10:36:59;;;;;;;;;46.75;36.50;;;;;;;;5033189;28;45482;-73
2021/11/12 10:39:28;;;;;;;;;50.50;38.75;;;;;;;;5035542;28;45410;-73
2021/11/12 10:41:55;;;;;;;;;53.25;44.75;;;;;;;;5035207;28;45355;-74
2021/11/12 10:44:20;;;;;;;;;51.50;42.00;;;;;;;;5035741;28;45543;-74
2021/11/12 10:46:47;;;;;;;;;48.25;39.50;;;;;;;;5033001;28;45327;-74
2021/11/12 10:49:21;;;;;;;;;46.25;37.75;;;;;;;;5035003;28;45590;-75
2021/11/12 10:52:00;;;;;;;;;49.25;40.25;;;;;;;;5035483;28;45811;-74
2021/11/12 10:54:36;;;;;;;;;46.75;39.00;;;;;;;;5034900;28;45363;-74
2021/11/12 10:57:04;;;;;;;;;43.50;37.50;;;;;;;;5035780;28;45440;-74
2021/11/12 10:59:30;;;;;;;;;44.00;35.50;;;;;;;;5035446;28;45307;-74
2021/11/12 11:01:55;;;;;;;;;45.00;37.50;;;;;;;;5035345;28;47586;-74
2021/11/12 11:04:21;;;;;;;;;45.50;37.00;;;;;;;;5035295;28;45297;-74
2021/11/12 11:06:48;;;;;;;;;47.25;37.75;;;;;;;;5035757;28;45435;-73
2021/11/12 11:09:13;;;;;;;;;49.00;40.00;;;;;;;;5035132;28;45570;-74
2021/11/12 11:11:39;;;;;;;;;53.25;39.75;;;;;;;;5035361;28;45974;-74
2021/11/12 11:14:05;;;;;;;;;45.25;36.75;;;;;;;;5035917;28;45363;-72
2021/11/12 11:16:35;;;;;;;;;29.75;29.00;;;;;;;;5034316;28;45292;-74
2021/11/12 11:19:01;;;;;;;;;47.00;37.50;;;;;;;;5033972;28;45479;-75
2021/11/12 11:21:27;;;;;;;;;42.50;32.25;;;;;;;;5033780;28;46908;-74
2021/11/12 11:23:57;;;;;;;;;29.75;27.75;;;;;;;;5034281;28;45571;-73
2021/11/12 11:26:22;;;;;;;;;39.50;34.25;;;;;;;;5034637;28;45252;-74
2021/11/12 11:28:48;;;;;;;;;34.50;32.25;;;;;;;;5034943;28;45387;-74
2021/11/12 11:31:14;;;;;;;;;40.75;36.00;;;;;;;;5034092;28;47175;-74
2021/11/12 11:33:41;;;;;;;;;28.75;24.00;;;;;;;;5034115;28;45583;-73
2021/11/12 11:36:07;;;;;;;;;40.75;34.00;;;;;;;;5034637;28;45465;-75
2021/11/12 11:38:35;;;;;;;;;48.00;37.25;;;;;;;;5034365;28;45692;-74
2021/11/12 11:41:01;;;;;;;;;47.25;38.25;;;;;;;;5034782;28;45288;-74
2021/11/12 11:43:30;;;;;;;;;41.25;33.75;;;;;;;;5033689;28;46423;-74
2021/11/12 11:45:57;;;;;;;;;30.25;28.25;;;;;;;;5033935;28;45148;-73
2021/11/12 11:48:23;;;;;;;;;40.25;33.50;;;;;;;;5032327;28;45324;-73
2021/11/12 11:50:56;;;;;;;;;39.50;33.50;;;;;;;;5034201;28;46056;-75
2021/11/12 11:53:23;;;;;;;;;43.00;33.75;;;;;;;;5034378;28;45457;-73
2021/11/12 11:55:48;;;;;;;;;38.00;34.50;;;;;;;;5035030;28;45402;-74
2021/11/12 11:58:34;;;;;;;;;31.50;30.25;;;;;;;;5033739;28;45466;-73
2021/11/12 12:01:29;;;;;;;;;40.75;34.75;;;;;;;;5033598;28;46121;-74
2021/11/12 12:04:10;;;;;;;;;40.50;33.50;;;;;;;;5020381;28;45539;-74
2021/11/12 12:06:36;;;;;;;;;40.50;33.50;;;;;;;;5033732;28;45526;-74
2021/11/12 12:09:09;;;;;;;;;40.75;34.50;;;;;;;;5034197;28;45479;-73
2021/11/12 12:11:38;;;;;;;;;36.00;32.25;;;;;;;;5017941;28;47185;-72
2021/11/12 12:14:22;;;;;;;;;39.25;34.75;;;;;;;;5030584;28;45382;-72
2021/11/12 12:16:50;;;;;;;;;41.00;33.25;;;;;;;;5033084;28;45503;-74
2021/11/12 12:19:40;;;;;;;;;33.75;31.75;;;;;;;;5034149;28;45380;-74
2021/11/12 12:22:14;;;;;;;;;33.25;30.75;;;;;;;;5033408;28;47309;-74
2021/11/12 13:19:46;;;;;;;;;36.50;34.00;;;;;;;;5033731;28;45696;-74
2021/11/12 13:22:04;;;;;;;;;33.25;27.75;;;;;;;;5032809;28;45339;-74
2021/11/12 13:24:32;;;;;;;;;41.00;35.00;;;;;;;;5033377;28;45476;-73
2021/11/12 13:27:01;;;;;;;;;37.00;32.75;;;;;;;;5033466;28;45399;-73
2021/11/12 13:29:26;;;;;;;;;39.25;34.25;;;;;;;;5033087;28;45466;-74
2021/11/12 13:32:02;;;;;;;;;39.25;34.75;;;;;;;;5033564;28;45436;-72
2021/11/12 13:34:28;;;;;;;;;35.75;33.50;;;;;;;;5033299;28;45497;-73
2021/11/12 13:36:54;;;;;;;;;37.25;32.50;;;;;;;;5033110;28;45560;-71
2021/11/12 13:39:19;;;;;;;;;31.50;30.50;;;;;;;;5033162;28;45797;-73
2021/11/12 13:41:48;;;;;;;;;35.25;32.75;;;;;;;;5032890;28;45395;-74
2021/11/12 13:44:17;;;;;;;;;39.25;33.00;;;;;;;;5032949;28;45325;-72
2021/11/12 13:46:58;;;;;;;;;36.75;34.00;;;;;;;;5032231;28;45590;-73
2021/11/12 13:49:43;;;;;;;;;35.50;31.50;;;;;;;;5032402;28;45462;-73
2021/11/12 13:52:10;;;;;;;;;40.50;33.75;;;;;;;;5032038;28;45347;-73
2021/11/12 13:54:39;;;;;;;;;41.00;36.00;;;;;;;;5032380;28;45288;-73
2021/11/12 13:57:09;;;;;;;;;44.00;35.75;;;;;;;;5032424;28;45371;-73
2021/11/12 13:59:34;;;;;;;;;37.00;33.00;;;;;;;;5032248;28;46450;-72
2021/11/12 14:02:01;;;;;;;;;38.25;32.50;;;;;;;;5032695;28;45706;-71
2021/11/12 14:04:29;;;;;;;;;38.75;33.75;;;;;;;;5032092;28;45514;-71
2021/11/12 14:06:55;;;;;;;;;39.25;35.25;;;;;;;;5031837;28;45258;-73
2021/11/12 14:09:21;;;;;;;;;46.00;39.00;;;;;;;;5031708;28;46394;-73
2021/11/12 14:11:48;;;;;;;;;48.25;39.00;;;;;;;;5032865;28;45487;-73
2021/11/12 14:14:19;;;;;;;;;36.25;32.75;;;;;;;;5035105;28;45371;-73
2021/11/12 14:16:51;;;;;;;;;46.00;36.75;;;;;;;;5035332;28;45444;-73
2021/11/12 14:27:17;;;;;;;;;45.75;38.50;;;;;;;;5035719;28;45426;-73
2021/11/12 14:45:56;;;;;;;;;48.50;38.50;;;;;;;;4954706;28;46100;-73
2021/11/12 14:48:30;;;;;;;;;46.50;38.75;;;;;;;;4954607;28;45475;-74
2021/11/12 14:51:02;;;;;;;;;48.00;38.75;;;;;;;;4955104;28;46246;-74
2021/11/12 14:53:49;;;;;;;;;57.50;46.00;;;;;;;;4954435;28;45600;-73
2021/11/12 14:56:26;;;;;;;;;42.50;34.75;;;;;;;;4951390;28;45354;-72
2021/11/12 14:59:03;;;;;;;;;38.50;32.25;;;;;;;;4952912;28;45451;-74
2021/11/12 15:01:30;;;;;;;;;40.50;35.25;;;;;;;;4954498;28;46390;-73
2021/11/12 15:03:55;;;;;;;;;40.50;34.50;;;;;;;;4955047;28;45486;-72
2021/11/12 15:06:23;;;;;;;;;37.50;31.75;;;;;;;;4954714;28;45537;-72
2021/11/12 15:08:54;;;;;;;;;41.00;34.75;;;;;;;;4954864;28;45580;-74
2021/11/12 15:11:22;;;;;;;;;51.25;41.50;;;;;;;;4954732;28;46381;-74
2021/11/12 15:13:49;;;;;;;;;34.75;33.75;;;;;;;;4951849;28;45501;-74
2021/11/12 15:16:21;;;;;;;;;43.00;35.75;;;;;;;;4954698;28;45355;-74
2021/11/12 15:18:46;;;;;;;;;46.75;37.25;;;;;;;;4954337;28;45407;-74
2021/11/12 15:21:27;;;;;;;;;44.00;36.00;;;;;;;;5024718;28;46421;-73
2021/11/12 15:29:06;;;;;;;;;49.25;38.25;;;;;;;;5033930;28;45551;-74
2021/11/12 15:31:39;;;;;;;;;46.00;39.00;;;;;;;;5034478;28;47044;-74
2021/11/12 15:34:07;;;;;;;;;50.00;39.75;;;;;;;;5034535;28;45777;-73
2021/11/12 15:36:34;;;;;;;;;48.00;39.75;;;;;;;;5033725;28;45200;-73
2021/11/12 15:39:18;;;;;;;;;46.75;38.50;;;;;;;;5034602;28;45407;-73
2021/11/12 15:44:31;;;;;;;;;52.50;42.25;;;;;;;;5034572;28;45292;-76
2021/11/12 15:49:56;;;;;;;;;49.00;39.25;;;;;;;;5019460;28;45585;-73
2021/11/12 15:52:41;;;;;;;;;47.25;39.00;;;;;;;;5033727;28;46276;-74
2021/11/12 15:58:08;;;;;;;;;48.75;42.50;;;;;;;;5035054;28;45350;-80
2021/11/12 16:13:41;;;;;;;;;49.50;40.50;;;;;;;;5035458;28;45695;-82
2021/11/12 16:26:05;;;;;;;;;49.25;40.50;;;;;;;;5035587;28;45339;-74
2021/11/12 16:28:42;;;;;;;;;50.50;39.50;;;;;;;;5014203;28;45598;-73
2021/11/12 16:31:08;;;;;;;;;56.25;44.00;;;;;;;;5032306;28;45510;-74
2021/11/12 16:33:33;;;;;;;;;47.50;40.25;;;;;;;;5013967;28;46887;-76
2021/11/12 16:36:03;;;;;;;;;49.50;41.00;;;;;;;;5032563;28;45585;-75
2021/11/12 16:38:33;;;;;;;;;50.75;40.75;;;;;;;;5033628;28;45647;-74
2021/11/12 16:41:11;;;;;;;;;52.25;42.25;;;;;;;;5034407;28;45267;-73
2021/11/12 16:47:09;;;;;;;;;45.50;35.75;;;;;;;;5033655;28;45294;-76
2021/11/12 16:54:18;;;;;;;;;46.00;39.50;;;;;;;;5016329;28;46207;-74
2021/11/12 16:59:16;;;;;;;;;35.25;31.75;;;;;;;;5033624;28;45393;-75
2021/11/12 17:04:17;;;;;;;;;32.25;28.50;;;;;;;;5032555;28;46052;-72
2021/11/12 17:06:52;;;;;;;;;28.75;26.50;;;;;;;;5032625;28;45471;-74
2021/11/12 17:09:53;;;;;;;;;31.00;29.25;;;;;;;;5033015;28;45401;-72
2021/11/12 17:15:02;;;;;;;;;26.50;23.00;;;;;;;;5033748;28;45961;-76
2021/11/12 17:17:47;;;;;;;;;30.00;27.00;;;;;;;;5032193;28;45482;-77
2021/11/12 17:20:24;;;;;;;;;28.75;26.25;;;;;;;;5031355;28;45440;-77
2021/11/12 17:47:17;;;;;;;;;26.75;23.00;;;;;;;;5034997;28;45852;-79
2021/11/12 17:50:06;;;;;;;;;24.25;22.00;;;;;;;;5031342;28;45514;-75
2021/11/12 18:03:33;;;;;;;;;24.75;22.50;;;;;;;;5036556;28;45528;-76
2021/11/12 18:22:12;;;;;;;;;29.50;27.50;;;;;;;;5041894;28;45462;-76
2021/11/12 21:43:57;;;;;;;;;33.00;31.25;;;;;;;;5034770;28;45478;-77
2021/11/12 21:46:23;;;;;;;;;36.50;31.25;;;;;;;;5035212;28;45337;-76
2021/11/12 21:48:57;;;;;;;;;32.25;29.00;;;;;;;;5034078;28;45481;-76
2021/11/12 21:51:27;;;;;;;;;28.75;27.25;;;;;;;;5034187;28;45471;-77
2021/11/12 21:53:54;;;;;;;;;38.50;30.00;;;;;;;;5033497;28;45358;-76
2021/11/12 21:56:19;;;;;;;;;21.25;16.25;;;;;;;;5034339;28;45360;-75
2021/11/12 21:58:45;;;;;;;;;34.00;30.25;;;;;;;;5034578;28;45272;-78
2021/11/12 22:01:11;;;;;;;;;32.25;27.00;;;;;;;;5033778;28;47545;-76
2021/11/12 22:03:36;;;;;;;;;27.50;26.75;;;;;;;;5033713;28;45531;-77
2021/11/12 22:06:02;;;;;;;;;41.75;34.00;;;;;;;;5033944;28;45443;-77
2021/11/12 22:08:29;;;;;;;;;31.50;31.00;;;;;;;;5033507;28;45423;-76
2021/11/12 22:10:55;;;;;;;;;30.00;27.25;;;;;;;;5034540;28;46192;-77
2021/11/12 22:13:20;;;;;;;;;34.25;32.50;;;;;;;;5033926;28;45348;-77
2021/11/12 22:15:45;;;;;;;;;31.00;28.75;;;;;;;;5034159;28;45342;-75
2021/11/12 22:18:11;;;;;;;;;33.75;27.75;;;;;;;;5034170;28;45581;-75
2021/11/12 22:20:36;;;;;;;;;22.00;20.25;;;;;;;;5034061;28;45324;-77
2021/11/12 22:23:02;;;;;;;;;37.25;31.00;;;;;;;;5033992;28;45438;-78
2021/11/12 22:25:27;;;;;;;;;33.50;30.75;;;;;;;;5035148;28;45567;-76
2021/11/12 22:27:52;;;;;;;;;39.50;34.00;;;;;;;;5016080;28;45553;-76
2021/11/12 22:30:17;;;;;;;;;39.50;33.00;;;;;;;;5033364;28;45362;-77
2021/11/12 22:32:43;;;;;;;;;38.25;30.50;;;;;;;;5034751;28;45407;-77
2021/11/12 22:35:08;;;;;;;;;35.50;32.00;;;;;;;;5037980;28;45406;-77
2021/11/12 22:37:33;;;;;;;;;34.00;28.00;;;;;;;;5036394;28;45487;-74
2021/11/12 22:39:59;;;;;;;;;30.50;29.25;;;;;;;;5037307;28;45315;-76
2021/11/12 22:42:24;;;;;;;;;36.50;31.25;;;;;;;;5036804;28;45354;-77
2021/11/12 22:44:49;;;;;;;;;35.75;28.75;;;;;;;;5037427;28;45439;-76
2021/11/12 22:47:15;;;;;;;;;35.50;25.50;;;;;;;;5037395;28;45422;-77
2021/11/12 22:49:40;;;;;;;;;33.00;29.00;;;;;;;;5037361;28;45496;-77
2021/11/12 22:52:06;;;;;;;;;37.25;30.25;;;;;;;;5036495;28;45586;-77
2021/11/12 22:54:31;;;;;;;;;31.50;29.25;;;;;;;;5037111;28;45319;-76
2021/11/12 22:56:56;;;;;;;;;33.00;30.00;;;;;;;;5036950;28;45439;-76
2021/11/12 22:59:21;;;;;;;;;37.25;31.50;;;;;;;;5037205;28;45766;-74
2021/11/12 23:01:47;;;;;;;;;31.25;28.75;;;;;;;;5037467;28;45409;-76
2021/11/12 23:04:12;;;;;;;;;37.00;32.25;;;;;;;;5036964;28;45391;-76
2021/11/12 23:06:38;;;;;;;;;31.50;29.75;;;;;;;;5036285;28;45520;-75
2021/11/12 23:09:04;;;;;;;;;34.75;30.50;;;;;;;;5036425;28;46370;-75
2021/11/12 23:11:29;;;;;;;;;33.75;27.25;;;;;;;;5038415;28;45398;-75
2021/11/12 23:13:55;;;;;;;;;30.50;29.75;;;;;;;;5046370;28;45193;-76
2021/11/12 23:16:20;;;;;;;;;22.00;20.00;;;;;;;;5042805;28;45468;-78
2021/11/12 23:18:46;;;;;;;;;40.25;31.50;;;;;;;;5039494;28;45916;-77
2021/11/12 23:21:12;;;;;;;;;33.00;29.75;;;;;;;;5036815;28;45310;-77
2021/11/12 23:23:38;;;;;;;;;36.75;29.50;;;;;;;;5021044;28;45400;-76
2021/11/12 23:26:04;;;;;;;;;31.75;29.75;;;;;;;;5037764;28;45308;-76
2021/11/12 23:28:29;;;;;;;;;28.75;25.25;;;;;;;;5037011;28;46177;-76
2021/11/12 23:30:54;;;;;;;;;31.25;27.50;;;;;;;;5036050;28;45505;-74
2021/11/12 23:33:20;;;;;;;;;31.50;27.25;;;;;;;;5036299;28;45398;-76
2021/11/12 23:35:46;;;;;;;;;25.50;25.00;;;;;;;;5035795;28;45398;-77
2021/11/12 23:38:13;;;;;;;;;30.75;28.25;;;;;;;;5038916;28;46070;-81
2021/11/12 23:40:38;;;;;;;;;27.75;24.00;;;;;;;;5031252;28;45278;-74
2021/11/12 23:43:03;;;;;;;;;36.75;29.50;;;;;;;;5029980;28;45280;-80
2021/11/12 23:45:29;;;;;;;;;27.00;24.50;;;;;;;;5039342;28;45496;-74
2021/11/12 23:47:55;;;;;;;;;28.00;25.00;;;;;;;;5035367;28;46133;-81
2021/11/12 23:50:20;;;;;;;;;32.00;25.75;;;;;;;;5044623;28;45358;-73
2021/11/12 23:52:46;;;;;;;;;26.00;23.25;;;;;;;;5036346;28;45323;-78
2021/11/12 23:55:13;;;;;;;;;24.50;22.00;;;;;;;;5031815;28;45482;-77
2021/11/12 23:57:39;;;;;;;;;30.75;25.50;;;;;;;;5028161;28;47232;-84
